Time;durP1;ratioP1;P1;durP2;ratioP2;P2;SDS_P1;SDS_P2;PMS_P1;PMS_P2;Temp;Humidity;BMP_temperature;BMP_pressure;BME280_temperature;BME280_humidity;BME280_pressure;Samples;Min_cycle;Max_cycle;Signal;HPM_P1;HPM_P2
2023/10/10 00:01:05;;;;;;;17.63;14.52;;;;;;;;;;5283903;28;20364;-75
2023/10/10 00:03:39;;;;;;;22.27;15.52;;;;;;;;;;5283712;28;20031;-75
2023/10/10 00:06:13;;;;;;;19.60;15.68;;;;;;;;;;5283173;28;20023;-75
2023/10/10 00:08:46;;;;;;;17.88;15.05;;;;;;;;;;5283336;28;20028;-76
2023/10/10 00:11:18;;;;;;;17.90;14.75;;;;;;;;;;5283897;28;20044;-76
2023/10/10 00:13:58;;;;;;;16.90;14.32;;;;;;;;;;5282256;28;20100;-76
2023/10/10 00:16:36;;;;;;;16.48;14.77;;;;;;;;;;5283818;28;20025;-76
2023/10/10 00:21:50;;;;;;;17.23;15.43;;;;;;;;;;5282207;28;20463;-76
2023/10/10 00:24:32;;;;;;;17.02;15.23;;;;;;;;;;5283467;28;20065;-76
2023/10/10 00:27:12;;;;;;;19.85;14.90;;;;;;;;;;5282314;28;20482;-75
2023/10/10 00:29:43;;;;;;;17.40;15.55;;;;;;;;;;5283074;28;20062;-76
2023/10/10 00:32:22;;;;;;;22.40;16.23;;;;;;;;;;5282925;28;20072;-76
2023/10/10 00:34:55;;;;;;;16.95;15.15;;;;;;;;;;5281961;28;20464;-76
2023/10/10 00:37:29;;;;;;;18.95;15.80;;;;;;;;;;5282750;28;20020;-76
2023/10/10 00:40:07;;;;;;;17.95;15.35;;;;;;;;;;5282916;28;20020;-76
2023/10/10 00:42:40;;;;;;;17.53;15.63;;;;;;;;;;5282210;28;20051;-76
2023/10/10 00:45:14;;;;;;;18.35;16.52;;;;;;;;;;5282704;28;20062;-75
2023/10/10 00:47:48;;;;;;;21.40;16.10;;;;;;;;;;5281602;28;20051;-76
2023/10/10 00:50:20;;;;;;;18.33;16.02;;;;;;;;;;5283116;28;20111;-76
2023/10/10 00:52:53;;;;;;;17.60;15.73;;;;;;;;;;5282180;28;20064;-76
2023/10/10 00:55:24;;;;;;;22.65;16.45;;;;;;;;;;5281742;28;20100;-76
2023/10/10 00:57:58;;;;;;;20.08;16.50;;;;;;;;;;5282783;28;20100;-76
2023/10/10 01:00:30;;;;;;;20.10;16.85;;;;;;;;;;5282609;28;20025;-76
2023/10/10 01:03:14;;;;;;;17.00;15.23;;;;;;;;;;5281602;28;20020;-76
2023/10/10 01:05:52;;;;;;;19.40;16.25;;;;;;;;;;5282119;28;20017;-76
2023/10/10 01:08:26;;;;;;;18.95;15.98;;;;;;;;;;5282296;28;20036;-76
2023/10/10 01:11:03;;;;;;;16.77;15.05;;;;;;;;;;5281670;28;20017;-76
2023/10/10 01:13:34;;;;;;;18.42;16.60;;;;;;;;;;5282359;28;20082;-75
2023/10/10 01:16:05;;;;;;;22.02;16.48;;;;;;;;;;5281499;28;20476;-76
2023/10/10 01:18:51;;;;;;;20.20;17.05;;;;;;;;;;5282129;28;20025;-76
2023/10/10 01:21:32;;;;;;;19.27;16.08;;;;;;;;;;5282369;28;20032;-76
2023/10/10 01:24:11;;;;;;;21.38;17.20;;;;;;;;;;5281161;28;20018;-75
2023/10/10 01:26:45;;;;;;;;;;;;;;;;;;5282500;28;20597;-75
2023/10/10 01:31:54;;;;;;;21.00;16.75;;;;;;;;;;5280889;28;20044;-76
2023/10/10 01:34:32;;;;;;;20.48;17.83;;;;;;;;;;5282101;28;20391;-76
2023/10/10 01:37:07;;;;;;;20.50;17.65;;;;;;;;;;5281210;28;20440;-76
2023/10/10 01:39:45;;;;;;;20.15;17.95;;;;;;;;;;5281157;28;20021;-76
2023/10/10 01:42:18;;;;;;;22.23;19.17;;;;;;;;;;5282394;28;20008;-75
2023/10/10 01:44:51;;;;;;;20.42;18.02;;;;;;;;;;5280628;28;20099;-76
2023/10/10 01:47:26;;;;;;;21.73;19.45;;;;;;;;;;5282236;28;20039;-75
2023/10/10 01:49:58;;;;;;;21.15;18.77;;;;;;;;;;5281681;28;20016;-76
2023/10/10 01:52:29;;;;;;;20.13;17.98;;;;;;;;;;5280824;28;20379;-76
2023/10/10 01:55:00;;;;;;;21.02;18.50;;;;;;;;;;5281802;28;20070;-76
2023/10/10 01:57:31;;;;;;;21.50;18.70;;;;;;;;;;5281943;28;20025;-76
2023/10/10 02:00:19;;;;;;;23.48;19.20;;;;;;;;;;5280813;28;20017;-76
2023/10/10 02:02:52;;;;;;;22.73;18.63;;;;;;;;;;5281335;28;20031;-76
2023/10/10 02:08:26;;;;;;;21.40;19.30;;;;;;;;;;5281550;28;20028;-76
2023/10/10 02:11:02;;;;;;;23.65;18.85;;;;;;;;;;5281767;28;20012;-76
2023/10/10 02:13:33;;;;;;;22.08;19.88;;;;;;;;;;5280884;28;20024;-76
2023/10/10 02:16:06;;;;;;;26.23;20.70;;;;;;;;;;5281427;28;20074;-76
2023/10/10 02:18:40;;;;;;;22.70;18.85;;;;;;;;;;5281413;28;20032;-76
2023/10/10 02:21:17;;;;;;;22.77;20.38;;;;;;;;;;5280462;28;20017;-76
2023/10/10 02:23:53;;;;;;;22.65;20.02;;;;;;;;;;5281229;28;20017;-75
2023/10/10 02:26:35;;;;;;;22.77;18.75;;;;;;;;;;5280826;28;20024;-76
2023/10/10 02:29:33;;;;;;;21.42;18.70;;;;;;;;;;5281271;28;20028;-76
2023/10/10 02:32:12;;;;;;;21.00;17.92;;;;;;;;;;5281130;28;20048;-76
2023/10/10 02:34:44;;;;;;;24.67;19.27;;;;;;;;;;5280599;28;20391;-76
2023/10/10 02:42:39;;;;;;;23.38;20.67;;;;;;;;;;5281152;28;20032;-76
2023/10/10 02:45:13;;;;;;;23.65;20.05;;;;;;;;;;5281320;28;20412;-76
2023/10/10 02:47:52;;;;;;;21.83;19.63;;;;;;;;;;5280126;28;20068;-76
2023/10/10 02:50:41;;;;;;;23.95;20.00;;;;;;;;;;5283561;28;20095;-76
2023/10/10 02:53:15;;;;;;;23.58;20.17;;;;;;;;;;5285116;28;20025;-76
2023/10/10 02:55:52;;;;;;;23.45;20.92;;;;;;;;;;5284017;28;20013;-76
2023/10/10 02:58:28;;;;;;;22.25;19.45;;;;;;;;;;5284914;28;20031;-76
2023/10/10 03:00:59;;;;;;;24.45;21.52;;;;;;;;;;5285130;28;20386;-76
2023/10/10 03:03:30;;;;;;;22.75;19.52;;;;;;;;;;5284205;28;20109;-76
2023/10/10 03:06:06;;;;;;;26.10;20.35;;;;;;;;;;5284820;28;20023;-76
2023/10/10 03:08:51;;;;;;;23.27;20.45;;;;;;;;;;5283895;28;20083;-76
2023/10/10 03:11:52;;;;;;;23.05;19.73;;;;;;;;;;5284977;28;20009;-74
2023/10/10 03:14:28;;;;;;;26.30;19.08;;;;;;;;;;5284867;28;20317;-74
2023/10/10 03:17:03;;;;;;;25.70;19.55;;;;;;;;;;5283828;28;20023;-75
2023/10/10 03:19:38;;;;;;;22.02;18.15;;;;;;;;;;5284511;28;20044;-77
2023/10/10 03:25:09;;;;;;;24.70;18.42;;;;;;;;;;5284289;28;20037;-76
2023/10/10 03:28:05;;;;;;;24.55;19.67;;;;;;;;;;5284117;28;20028;-75
2023/10/10 03:30:51;;;;;;;25.13;20.48;;;;;;;;;;5283642;28;20417;-76
2023/10/10 03:33:35;;;;;;;24.90;20.98;;;;;;;;;;5284579;28;20112;-77
2023/10/10 05:25:59;;;;;;;21.90;18.45;;;;;;;;;;5282341;28;20064;-77
2023/10/10 05:28:32;;;;;;;20.80;17.83;;;;;;;;;;5281817;28;20435;-77
2023/10/10 05:31:09;;;;;;;23.73;17.20;;;;;;;;;;5281291;28;20048;-77
2023/10/10 05:33:41;;;;;;;21.67;16.88;;;;;;;;;;5282511;28;20459;-77
2023/10/10 05:36:13;;;;;;;19.90;15.68;;;;;;;;;;5281061;28;20035;-76
2023/10/10 05:38:45;;;;;;;18.90;15.93;;;;;;;;;;5281488;28;20031;-76
2023/10/10 05:41:19;;;;;;;21.02;16.02;;;;;;;;;;5282149;28;20150;-76
2023/10/10 05:43:50;;;;;;;19.13;15.82;;;;;;;;;;5280604;28;20069;-76
2023/10/10 05:46:21;;;;;;;26.15;15.65;;;;;;;;;;5282260;28;20016;-76
2023/10/10 05:48:52;;;;;;;19.73;15.05;;;;;;;;;;5281444;28;20025;-76
2023/10/10 05:51:24;;;;;;;18.67;15.65;;;;;;;;;;5280819;28;20398;-76
2023/10/10 05:53:55;;;;;;;19.52;15.38;;;;;;;;;;5281592;28;20021;-76
2023/10/10 05:56:29;;;;;;;19.52;14.10;;;;;;;;;;5281558;28;20039;-76
2023/10/10 05:59:02;;;;;;;17.73;14.90;;;;;;;;;;5280834;28;20489;-76
2023/10/10 06:01:36;;;;;;;17.48;13.82;;;;;;;;;;5281690;28;20104;-77
2023/10/10 06:04:08;;;;;;;18.02;14.00;;;;;;;;;;5276795;28;20044;-76
2023/10/10 06:06:39;;;;;;;16.73;13.27;;;;;;;;;;5281618;28;20055;-77
2023/10/10 06:09:18;;;;;;;17.80;13.73;;;;;;;;;;5281399;28;20078;-76
2023/10/10 06:11:49;;;;;;;15.30;12.70;;;;;;;;;;5279986;28;20024;-76
2023/10/10 06:14:21;;;;;;;15.57;13.05;;;;;;;;;;5281389;28;20023;-75
2023/10/10 06:16:53;;;;;;;15.23;12.00;;;;;;;;;;5280815;28;20497;-76
2023/10/10 06:19:25;;;;;;;16.42;11.63;;;;;;;;;;5279854;28;20041;-75
2023/10/10 06:22:02;;;;;;;14.40;12.25;;;;;;;;;;5281027;28;20036;-76
2023/10/10 06:24:33;;;;;;;18.13;12.30;;;;;;;;;;5282298;28;20059;-77
2023/10/10 06:27:08;;;;;;;15.23;11.95;;;;;;;;;;5283828;28;20068;-78
2023/10/10 06:29:40;;;;;;;15.90;11.85;;;;;;;;;;5285324;28;20031;-77
2023/10/10 06:32:15;;;;;;;16.83;12.63;;;;;;;;;;5284121;28;20085;-77
2023/10/10 06:35:03;;;;;;;20.55;11.77;;;;;;;;;;5285018;28;20017;-77
2023/10/10 06:37:35;;;;;;;14.10;11.10;;;;;;;;;;5285356;28;20028;-77
2023/10/10 06:40:08;;;;;;;17.48;10.75;;;;;;;;;;5284556;28;20418;-77
2023/10/10 06:42:46;;;;;;;12.43;9.63;;;;;;;;;;5285000;28;20471;-77
2023/10/10 06:45:22;;;;;;;13.38;10.60;;;;;;;;;;5285236;28;20452;-78
2023/10/10 06:47:54;;;;;;;17.33;11.13;;;;;;;;;;5284150;28;20077;-78
2023/10/10 06:50:31;;;;;;;12.60;10.25;;;;;;;;;;5285181;28;20013;-77
2023/10/10 06:53:03;;;;;;;15.95;10.35;;;;;;;;;;5284580;28;20100;-79
2023/10/10 06:55:37;;;;;;;13.70;10.82;;;;;;;;;;5284124;28;20095;-79
2023/10/10 06:58:12;;;;;;;17.15;10.75;;;;;;;;;;5284850;28;20069;-79
2023/10/10 07:00:44;;;;;;;15.85;10.70;;;;;;;;;;5284121;28;20025;-74
2023/10/10 07:03:18;;;;;;;15.68;10.63;;;;;;;;;;5284907;28;20021;-74
2023/10/10 07:05:50;;;;;;;12.63;10.02;;;;;;;;;;5284369;28;20028;-74
2023/10/10 07:08:25;;;;;;;12.40;10.75;;;;;;;;;;5284649;28;20032;-78
2023/10/10 07:10:56;;;;;;;13.60;10.40;;;;;;;;;;5284797;28;20017;-78
2023/10/10 07:13:30;;;;;;;18.60;10.85;;;;;;;;;;5284781;28;20016;-78
2023/10/10 07:16:02;;;;;;;15.88;10.93;;;;;;;;;;5283906;28;20013;-78
2023/10/10 07:18:33;;;;;;;14.57;10.55;;;;;;;;;;5284470;28;20039;-78
2023/10/10 07:21:04;;;;;;;13.05;10.57;;;;;;;;;;5284445;28;20555;-79
2023/10/10 07:23:42;;;;;;;13.52;10.73;;;;;;;;;;5283712;28;20369;-78
2023/10/10 07:26:20;;;;;;;13.73;10.33;;;;;;;;;;5284558;28;20027;-79
2023/10/10 07:28:56;;;;;;;15.55;10.88;;;;;;;;;;5283221;28;20704;-78
2023/10/10 07:31:34;;;;;;;14.65;10.90;;;;;;;;;;5284137;28;20147;-78
2023/10/10 07:34:15;;;;;;;13.02;10.88;;;;;;;;;;5284551;28;20020;-79
2023/10/10 07:36:50;;;;;;;17.35;10.40;;;;;;;;;;5282224;28;20387;-79
2023/10/10 07:39:33;;;;;;;14.82;11.63;;;;;;;;;;5275750;28;20013;-78
2023/10/10 07:42:09;;;;;;;15.20;9.75;;;;;;;;;;5262429;28;20021;-79
2023/10/10 07:44:41;;;;;;;15.50;10.77;;;;;;;;;;5262195;28;20017;-78
2023/10/10 07:49:50;;;;;;;15.82;11.35;;;;;;;;;;5261754;28;20025;-78
2023/10/10 07:52:22;;;;;;;13.63;11.43;;;;;;;;;;5263124;28;20465;-79
2023/10/10 07:54:54;;;;;;;14.50;10.55;;;;;;;;;;5262357;28;20135;-77
2023/10/10 07:57:29;;;;;;;15.60;10.50;;;;;;;;;;5261862;28;20185;-78
2023/10/10 08:00:00;;;;;;;15.27;11.30;;;;;;;;;;5262498;28;20066;-79
2023/10/10 08:02:31;;;;;;;14.07;10.10;;;;;;;;;;5262661;28;20017;-79
2023/10/10 08:05:09;;;;;;;14.20;10.43;;;;;;;;;;5262203;28;20020;-79
2023/10/10 08:07:40;;;;;;;12.13;9.60;;;;;;;;;;5260399;28;20437;-79
2023/10/10 08:10:13;;;;;;;13.57;10.15;;;;;;;;;;5261259;28;20019;-79
2023/10/10 08:12:45;;;;;;;12.38;10.20;;;;;;;;;;5261046;28;20021;-78
2023/10/10 08:15:19;;;;;;;16.27;10.90;;;;;;;;;;5262821;28;20020;-78
2023/10/10 08:17:53;;;;;;;12.70;10.45;;;;;;;;;;5261524;28;20104;-79
2023/10/10 08:21:07;;;;;;;13.65;9.07;;;;;;;;;;5262713;28;20046;-79
2023/10/10 08:23:27;;;;;;;12.82;8.85;;;;;;;;;;5261781;28;20021;-80
2023/10/10 08:25:58;;;;;;;15.32;10.05;;;;;;;;;;5261731;28;20417;-80
2023/10/10 08:28:29;;;;;;;15.32;9.88;;;;;;;;;;5262063;28;20056;-79
2023/10/10 08:31:00;;;;;;;12.65;9.88;;;;;;;;;;5262296;28;20045;-82
2023/10/10 08:33:32;;;;;;;16.40;9.27;;;;;;;;;;5261570;28;20093;-81
2023/10/10 08:36:03;;;;;;;12.13;8.57;;;;;;;;;;5261822;28;20327;-81
2023/10/10 08:38:41;;;;;;;14.10;9.88;;;;;;;;;;5261967;28;20099;-82
2023/10/10 08:41:13;;;;;;;13.35;9.27;;;;;;;;;;5261388;28;20380;-81
2023/10/10 08:43:45;;;;;;;14.77;8.80;;;;;;;;;;5261843;28;20013;-82
2023/10/10 08:46:16;;;;;;;14.70;9.75;;;;;;;;;;5261562;28;20028;-81
2023/10/10 08:48:49;;;;;;;10.88;8.70;;;;;;;;;;5261782;28;20033;-81
2023/10/10 08:51:20;;;;;;;11.27;8.45;;;;;;;;;;5262402;28;20029;-82
2023/10/10 08:53:52;;;;;;;11.43;8.40;;;;;;;;;;5260904;28;20025;-82
2023/10/10 08:56:25;;;;;;;11.18;7.57;;;;;;;;;;5261775;28;20013;-81
2023/10/10 08:58:57;;;;;;;13.43;8.82;;;;;;;;;;5261363;28;20024;-81
2023/10/10 09:01:33;;;;;;;12.43;8.60;;;;;;;;;;5261018;28;20026;-81
2023/10/10 09:04:04;;;;;;;68.30;15.93;;;;;;;;;;5261600;28;20353;-81
2023/10/10 09:06:57;;;;;;;191.45;31.00;;;;;;;;;;5261491;28;20448;-80
2023/10/10 09:09:37;;;;;;;23.10;11.00;;;;;;;;;;5260962;28;20040;-81
2023/10/10 09:12:14;;;;;;;11.23;8.05;;;;;;;;;;5261592;28;20047;-81
2023/10/10 09:14:50;;;;;;;10.70;8.10;;;;;;;;;;5260486;28;20035;-81
2023/10/10 09:17:32;;;;;;;10.10;7.47;;;;;;;;;;5261718;28;20104;-79
2023/10/10 09:20:17;;;;;;;13.38;8.02;;;;;;;;;;5261600;28;20094;-80
2023/10/10 09:22:52;;;;;;;10.88;7.28;;;;;;;;;;5260235;28;20074;-80
2023/10/10 09:25:31;;;;;;;10.75;7.15;;;;;;;;;;5261114;28;20021;-82
2023/10/10 09:28:07;;;;;;;10.15;7.10;;;;;;;;;;5261139;28;20040;-80
2023/10/10 09:30:59;;;;;;;14.85;7.97;;;;;;;;;;5260988;28;20023;-79
2023/10/10 09:33:33;;;;;;;12.40;7.45;;;;;;;;;;5261039;28;20109;-81
2023/10/10 09:36:15;;;;;;;9.60;7.65;;;;;;;;;;5260273;28;20033;-81
2023/10/10 09:38:48;;;;;;;11.75;6.93;;;;;;;;;;5260770;28;20025;-81
2023/10/10 09:58:00;;;;;;;14.35;7.60;;;;;;;;;;5259941;28;20025;-81
2023/10/10 10:09:17;;;;;;;13.13;7.20;;;;;;;;;;5260423;28;20080;-80
2023/10/10 10:11:48;;;;;;;8.80;6.18;;;;;;;;;;5259555;28;20029;-80
2023/10/10 10:14:35;;;;;;;9.57;7.32;;;;;;;;;;5261342;28;20025;-80
2023/10/10 10:17:18;;;;;;;10.88;7.10;;;;;;;;;;5260694;28;20021;-80
2023/10/10 10:19:50;;;;;;;9.75;6.47;;;;;;;;;;5259761;28;20077;-81
2023/10/10 10:22:21;;;;;;;8.43;5.60;;;;;;;;;;5260774;28;20443;-80
2023/10/10 10:25:20;;;;;;;8.93;5.63;;;;;;;;;;5259494;28;20272;-81
2023/10/10 10:27:51;;;;;;;13.18;6.85;;;;;;;;;;5259767;28;20491;-81
2023/10/10 10:32:54;;;;;;;10.05;6.93;;;;;;;;;;5259292;28;20540;-80
2023/10/10 10:35:36;;;;;;;14.48;6.80;;;;;;;;;;5259970;28;20746;-80
2023/10/10 10:38:07;;;;;;;10.23;6.93;;;;;;;;;;5260574;28;20029;-79
2023/10/10 10:43:20;;;;;;;8.57;6.68;;;;;;;;;;5260334;28;20025;-77
2023/10/10 10:45:51;;;;;;;6.82;5.45;;;;;;;;;;5259110;28;20029;-76
2023/10/10 10:48:34;;;;;;;10.80;7.40;;;;;;;;;;5260171;28;20124;-76
2023/10/10 10:51:22;;;;;;;8.68;6.57;;;;;;;;;;5259877;28;20071;-76
2023/10/10 10:53:56;;;;;;;10.63;6.33;;;;;;;;;;5259208;28;20025;-76
2023/10/10 10:59:12;;;;;;;7.72;4.97;;;;;;;;;;5259899;28;20068;-77
2023/10/10 11:01:51;;;;;;;11.50;6.22;;;;;;;;;;5258680;28;20029;-76
2023/10/10 11:04:42;;;;;;;;;;;;;;;;;;5261041;28;20471;-76
2023/10/10 11:07:26;;;;;;;13.57;6.95;;;;;;;;;;5259330;28;19919;-76
2023/10/10 11:10:06;;;;;;;8.95;5.90;;;;;;;;;;5259982;28;20032;-76
2023/10/10 11:12:38;;;;;;;10.90;6.30;;;;;;;;;;5262974;28;20483;-76
2023/10/10 11:15:10;;;;;;;9.68;5.88;;;;;;;;;;5263344;28;20107;-76
2023/10/10 11:17:49;;;;;;;11.30;6.68;;;;;;;;;;5263742;28;20017;-77
2023/10/10 11:20:29;;;;;;;9.38;5.53;;;;;;;;;;5263904;28;20108;-76
2023/10/10 11:23:12;;;;;;;12.27;5.40;;;;;;;;;;5262782;28;20025;-77
2023/10/10 11:25:58;;;;;;;9.38;5.65;;;;;;;;;;5263336;28;20118;-77
2023/10/10 11:28:47;;;;;;;13.10;5.80;;;;;;;;;;5262477;28;20400;-76
2023/10/10 11:31:23;;;;;;;;;;;;;;;;;;5264034;28;20400;-76
2023/10/10 11:34:10;;;;;;;11.88;5.40;;;;;;;;;;5263571;28;19917;-77
2023/10/10 11:36:41;;;;;;;9.70;6.53;;;;;;;;;;5262745;28;20419;-78
2023/10/10 11:39:31;;;;;;;10.30;6.25;;;;;;;;;;5265735;28;20503;-77
2023/10/10 11:42:07;;;;;;;12.38;5.88;;;;;;;;;;5269135;28;20060;-76
2023/10/10 11:44:41;;;;;;;87.95;15.32;;;;;;;;;;5262680;28;20021;-78
2023/10/10 11:47:24;;;;;;;15.07;6.93;;;;;;;;;;5259148;28;20028;-76
2023/10/10 11:50:00;;;;;;;7.88;5.13;;;;;;;;;;5262043;28;20024;-76
2023/10/10 11:52:32;;;;;;;6.35;4.32;;;;;;;;;;5262760;28;20029;-75
2023/10/10 11:55:07;;;;;;;9.30;5.93;;;;;;;;;;5262639;28;20017;-75
2023/10/10 11:57:38;;;;;;;9.95;4.57;;;;;;;;;;5262010;28;20379;-76
2023/10/10 12:00:11;;;;;;;8.70;4.85;;;;;;;;;;5262713;28;20023;-76
2023/10/10 12:02:48;;;;;;;9.73;4.88;;;;;;;;;;5262603;28;20037;-77
2023/10/10 12:08:01;;;;;;;9.32;5.40;;;;;;;;;;5283696;28;20048;-76
2023/10/10 12:13:09;;;;;;;18.65;6.97;;;;;;;;;;5283640;28;20131;-76
2023/10/10 12:15:40;;;;;;;10.13;5.43;;;;;;;;;;5283172;28;20095;-77
2023/10/10 12:18:13;;;;;;;9.30;5.40;;;;;;;;;;5282405;28;20027;-76
2023/10/10 12:20:44;;;;;;;13.50;5.15;;;;;;;;;;5283120;28;20282;-77
2023/10/10 12:23:16;;;;;;;8.83;5.00;;;;;;;;;;5282383;28;20017;-78
2023/10/10 12:25:49;;;;;;;7.13;4.30;;;;;;;;;;5282097;28;20043;-77
2023/10/10 12:28:20;;;;;;;8.15;5.35;;;;;;;;;;5282090;28;20103;-76
2023/10/10 12:31:00;;;;;;;7.40;4.00;;;;;;;;;;5281434;28;20119;-76
2023/10/10 12:33:36;;;;;;;7.25;3.53;;;;;;;;;;5283094;28;20095;-77
2023/10/10 12:36:10;;;;;;;8.68;4.03;;;;;;;;;;5283119;28;20388;-76
2023/10/10 12:38:41;;;;;;;6.28;3.13;;;;;;;;;;5282376;28;20017;-76
2023/10/10 12:41:12;;;;;;;6.82;2.78;;;;;;;;;;5282948;28;20033;-76
2023/10/10 12:43:43;;;;;;;4.97;3.27;;;;;;;;;;5282837;28;20044;-76
2023/10/10 12:46:16;;;;;;;7.47;3.67;;;;;;;;;;5282192;28;20028;-76
2023/10/10 12:48:51;;;;;;;7.00;3.53;;;;;;;;;;5282539;28;20290;-76
2023/10/10 12:51:23;;;;;;;5.32;3.47;;;;;;;;;;5283176;28;20078;-77
2023/10/10 12:54:01;;;;;;;5.97;3.78;;;;;;;;;;5281715;28;20020;-76
2023/10/10 12:56:38;;;;;;;7.95;3.97;;;;;;;;;;5282472;28;20039;-76
2023/10/10 12:59:15;;;;;;;7.50;3.28;;;;;;;;;;5281869;28;20032;-77
2023/10/10 13:01:46;;;;;;;7.07;3.75;;;;;;;;;;5282299;28;20070;-76
2023/10/10 13:04:19;;;;;;;7.27;2.77;;;;;;;;;;5282771;28;20012;-76
2023/10/10 13:06:51;;;;;;;4.70;2.05;;;;;;;;;;5281022;28;20566;-77
2023/10/10 13:09:25;;;;;;;3.80;2.42;;;;;;;;;;5282761;28;20020;-76
2023/10/10 13:11:56;;;;;;;10.75;2.50;;;;;;;;;;5282404;28;20467;-76
2023/10/10 13:14:32;;;;;;;10.02;4.05;;;;;;;;;;5281595;28;20024;-76
2023/10/10 13:19:53;;;;;;;7.63;2.35;;;;;;;;;;5277650;28;20025;-76
2023/10/10 13:22:24;;;;;;;7.47;2.80;;;;;;;;;;5281125;28;20017;-76
2023/10/10 13:24:56;;;;;;;6.40;2.10;;;;;;;;;;5281982;28;20498;-75
2023/10/10 13:27:27;;;;;;;5.57;2.70;;;;;;;;;;5280655;28;20463;-76
2023/10/10 13:29:58;;;;;;;7.07;3.65;;;;;;;;;;5281050;28;20262;-75
2023/10/10 13:32:29;;;;;;;7.70;2.60;;;;;;;;;;5280889;28;20052;-72
2023/10/10 13:35:00;;;;;;;6.22;2.90;;;;;;;;;;5280376;28;20020;-75
2023/10/10 13:37:32;;;;;;;6.43;2.20;;;;;;;;;;5281825;28;20099;-75
2023/10/10 13:40:05;;;;;;;6.20;2.13;;;;;;;;;;5281723;28;20027;-76
2023/10/10 13:42:40;;;;;;;11.70;2.78;;;;;;;;;;5281104;28;20023;-76
2023/10/10 13:45:17;;;;;;;5.40;2.22;;;;;;;;;;5281545;28;20020;-77
2023/10/10 13:47:48;;;;;;;7.80;2.97;;;;;;;;;;5281309;28;20024;-77
2023/10/10 13:50:28;;;;;;;5.73;2.47;;;;;;;;;;5281505;28;20038;-76
2023/10/10 13:52:59;;;;;;;5.80;2.50;;;;;;;;;;5281538;28;20313;-77
2023/10/10 13:55:34;;;;;;;6.30;2.23;;;;;;;;;;5280817;28;20071;-76
2023/10/10 13:58:10;;;;;;;4.38;1.75;;;;;;;;;;5281616;28;20129;-76
2023/10/10 14:00:43;;;;;;;9.48;2.97;;;;;;;;;;5281584;28;20021;-77
2023/10/10 14:03:14;;;;;;;6.18;1.75;;;;;;;;;;5280686;28;20024;-77
2023/10/10 14:06:00;;;;;;;7.63;3.20;;;;;;;;;;5281364;28;20017;-75
2023/10/10 14:08:31;;;;;;;8.40;2.63;;;;;;;;;;5281474;28;20464;-78
2023/10/10 14:11:03;;;;;;;8.48;2.28;;;;;;;;;;5280573;28;20016;-75
2023/10/10 14:13:35;;;;;;;9.13;3.05;;;;;;;;;;5281300;28;20016;-75
2023/10/10 14:16:06;;;;;;;5.38;1.63;;;;;;;;;;5281487;28;20519;-73
2023/10/10 14:18:47;;;;;;;4.07;2.00;;;;;;;;;;5280584;28;20020;-76
2023/10/10 14:21:25;;;;;;;6.05;2.47;;;;;;;;;;5281555;28;20258;-76
2023/10/10 14:24:07;;;;;;;7.30;1.70;;;;;;;;;;5280520;28;20040;-75
2023/10/10 14:26:39;;;;;;;7.32;2.35;;;;;;;;;;5281425;28;20472;-75
2023/10/10 14:29:13;;;;;;;5.18;2.00;;;;;;;;;;5281339;28;20029;-74
2023/10/10 14:31:44;;;;;;;8.90;3.08;;;;;;;;;;5280540;28;20491;-75
2023/10/10 14:34:25;;;;;;;7.80;2.47;;;;;;;;;;5281531;28;20028;-75
2023/10/10 14:36:56;;;;;;;4.65;1.75;;;;;;;;;;5281547;28;20493;-75
2023/10/10 14:39:44;;;;;;;6.77;2.43;;;;;;;;;;5280787;28;20020;-76
2023/10/10 14:42:15;;;;;;;4.68;1.73;;;;;;;;;;5281504;28;20254;-76
2023/10/10 14:44:46;;;;;;;8.23;1.70;;;;;;;;;;5280049;28;20024;-76
2023/10/10 14:47:20;;;;;;;6.90;2.90;;;;;;;;;;5285308;28;20063;-76
2023/10/10 14:49:56;;;;;;;4.63;2.20;;;;;;;;;;5284985;28;20070;-76
2023/10/10 14:52:35;;;;;;;5.45;2.28;;;;;;;;;;5284318;28;20048;-76
2023/10/10 14:55:23;;;;;;;5.25;1.70;;;;;;;;;;5285010;28;20047;-76
2023/10/10 14:57:55;;;;;;;6.80;2.17;;;;;;;;;;5285175;28;20020;-76
2023/10/10 15:00:28;;;;;;;6.15;2.35;;;;;;;;;;5284427;28;20020;-75
2023/10/10 15:02:59;;;;;;;7.80;2.60;;;;;;;;;;5284907;28;20092;-75
2023/10/10 15:05:32;;;;;;;5.78;2.45;;;;;;;;;;5284927;28;20099;-76
2023/10/10 15:08:04;;;;;;;9.02;2.83;;;;;;;;;;5284195;28;20021;-75
2023/10/10 15:10:40;;;;;;;5.93;1.70;;;;;;;;;;5284758;28;20025;-76
2023/10/10 15:13:15;;;;;;;7.13;2.20;;;;;;;;;;5283897;28;20027;-76
2023/10/10 15:15:46;;;;;;;8.90;2.38;;;;;;;;;;5284451;28;20460;-76
2023/10/10 15:18:18;;;;;;;5.38;2.30;;;;;;;;;;5285273;28;20066;-76
2023/10/10 15:20:49;;;;;;;4.72;2.10;;;;;;;;;;5283907;28;20020;-76
2023/10/10 15:23:20;;;;;;;5.82;2.10;;;;;;;;;;5284873;28;20024;-76
2023/10/10 15:25:55;;;;;;;5.77;1.80;;;;;;;;;;5284282;28;20051;-76
2023/10/10 15:28:28;;;;;;;4.20;2.08;;;;;;;;;;5283361;28;20036;-75
2023/10/10 15:30:59;;;;;;;6.15;2.40;;;;;;;;;;5284340;28;20437;-76
2023/10/10 15:33:30;;;;;;;4.77;2.30;;;;;;;;;;5284453;28;20017;-76
2023/10/10 15:36:06;;;;;;;6.07;2.50;;;;;;;;;;5283532;28;20344;-76
2023/10/10 15:38:40;;;;;;;5.03;2.00;;;;;;;;;;5284274;28;20048;-76
2023/10/10 15:41:15;;;;;;;5.20;2.38;;;;;;;;;;5283703;28;20021;-76
2023/10/10 15:43:47;;;;;;;5.95;2.08;;;;;;;;;;5284026;28;20414;-77
2023/10/10 15:46:25;;;;;;;4.50;2.20;;;;;;;;;;5284582;28;20020;-77
2023/10/10 15:48:57;;;;;;;5.32;2.78;;;;;;;;;;5283339;28;20028;-77
2023/10/10 15:51:38;;;;;;;9.68;2.50;;;;;;;;;;5284056;28;20035;-76
2023/10/10 15:54:09;;;;;;;9.38;2.53;;;;;;;;;;5284156;28;20027;-77
2023/10/10 15:56:41;;;;;;;5.82;2.40;;;;;;;;;;5282614;28;20025;-76
2023/10/10 15:59:15;;;;;;;5.53;2.50;;;;;;;;;;5283600;28;20021;-77
2023/10/10 16:01:48;;;;;;;7.22;2.53;;;;;;;;;;5283435;28;20379;-77
2023/10/10 16:04:20;;;;;;;10.23;3.10;;;;;;;;;;5283564;28;20463;-76
2023/10/10 16:06:52;;;;;;;5.65;2.13;;;;;;;;;;5283498;28;20048;-76
2023/10/10 16:09:29;;;;;;;7.43;2.40;;;;;;;;;;5283083;28;20028;-74
2023/10/10 16:12:00;;;;;;;7.32;2.40;;;;;;;;;;5283612;28;20028;-76
2023/10/10 16:14:36;;;;;;;8.40;2.25;;;;;;;;;;5283529;28;20023;-75
2023/10/10 16:17:08;;;;;;;10.07;2.65;;;;;;;;;;5282723;28;20048;-76
2023/10/10 16:19:42;;;;;;;12.63;2.90;;;;;;;;;;5283556;28;20415;-76
2023/10/10 16:22:13;;;;;;;8.57;2.97;;;;;;;;;;5283407;28;20443;-76
2023/10/10 16:24:50;;;;;;;11.60;3.38;;;;;;;;;;5282303;28;20043;-77
2023/10/10 16:27:22;;;;;;;40.95;5.15;;;;;;;;;;5283783;28;20475;-76
2023/10/10 16:29:55;;;;;;;24.30;3.97;;;;;;;;;;5283121;28;20054;-76
2023/10/10 16:32:26;;;;;;;9.82;3.03;;;;;;;;;;5282202;28;20040;-76
2023/10/10 16:34:58;;;;;;;7.88;2.67;;;;;;;;;;5283075;28;20112;-76
2023/10/10 16:37:29;;;;;;;7.93;2.75;;;;;;;;;;5282211;28;20146;-76
2023/10/10 16:40:00;;;;;;;5.77;2.77;;;;;;;;;;5282841;28;20485;-77
2023/10/10 16:42:32;;;;;;;9.07;2.53;;;;;;;;;;5283077;28;20609;-76
2023/10/10 16:45:04;;;;;;;6.70;2.70;;;;;;;;;;5282044;28;20301;-76
2023/10/10 16:47:36;;;;;;;22.20;3.50;;;;;;;;;;5282566;28;20044;-76
2023/10/10 16:50:08;;;;;;;10.60;3.10;;;;;;;;;;5282628;28;20024;-76
2023/10/10 16:52:40;;;;;;;10.60;2.72;;;;;;;;;;5282032;28;20028;-76
2023/10/10 16:55:11;;;;;;;16.77;3.03;;;;;;;;;;5282714;28;20032;-76
2023/10/10 16:57:42;;;;;;;10.75;3.08;;;;;;;;;;5282746;28;20433;-77
2023/10/10 17:00:15;;;;;;;10.45;3.15;;;;;;;;;;5281713;28;20021;-77
2023/10/10 17:02:47;;;;;;;8.30;2.67;;;;;;;;;;5282323;28;20037;-77
2023/10/10 17:05:23;;;;;;;7.82;2.95;;;;;;;;;;5282135;28;20019;-76
2023/10/10 17:07:56;;;;;;;9.18;2.58;;;;;;;;;;5282055;28;20039;-77
2023/10/10 17:10:29;;;;;;;7.32;2.47;;;;;;;;;;5282296;28;20036;-77
2023/10/10 17:13:00;;;;;;;7.70;3.10;;;;;;;;;;5281724;28;20029;-77
2023/10/10 17:15:34;;;;;;;8.70;3.03;;;;;;;;;;5282240;28;20017;-77
2023/10/10 17:18:08;;;;;;;8.75;2.78;;;;;;;;;;5282229;28;20672;-77
2023/10/10 17:20:40;;;;;;;6.80;2.90;;;;;;;;;;5281373;28;20086;-77
2023/10/10 17:23:13;;;;;;;5.68;3.35;;;;;;;;;;5282177;28;20414;-77
2023/10/10 17:25:44;;;;;;;9.07;2.83;;;;;;;;;;5282175;28;20044;-77
2023/10/10 17:28:15;;;;;;;10.30;2.72;;;;;;;;;;5281214;28;20060;-76
2023/10/10 17:30:46;;;;;;;9.60;2.50;;;;;;;;;;5281334;28;20498;-78
2023/10/10 17:33:18;;;;;;;10.55;2.60;;;;;;;;;;5282162;28;20278;-78
2023/10/10 17:35:49;;;;;;;8.13;2.40;;;;;;;;;;5281015;28;20024;-77
2023/10/10 17:38:21;;;;;;;12.82;2.70;;;;;;;;;;5282319;28;20020;-72
2023/10/10 17:40:58;;;;;;;9.32;2.78;;;;;;;;;;5280897;28;20020;-78
2023/10/10 17:43:30;;;;;;;10.15;3.13;;;;;;;;;;5281875;28;20020;-77
2023/10/10 17:46:01;;;;;;;23.58;3.90;;;;;;;;;;5281567;28;20073;-77
2023/10/10 17:48:34;;;;;;;18.05;3.55;;;;;;;;;;5281134;28;20387;-78
2023/10/10 17:51:05;;;;;;;13.17;3.07;;;;;;;;;;5281827;28;20017;-77
2023/10/10 17:53:38;;;;;;;11.27;3.03;;;;;;;;;;5281773;28;20262;-78
2023/10/10 17:56:12;;;;;;;10.85;3.05;;;;;;;;;;5281406;28;20311;-78
2023/10/10 17:58:46;;;;;;;12.13;2.70;;;;;;;;;;5281803;28;20459;-77
2023/10/10 18:01:19;;;;;;;9.68;2.80;;;;;;;;;;5282048;28;20035;-77
2023/10/10 18:03:52;;;;;;;7.28;2.83;;;;;;;;;;5280481;28;20024;-77
2023/10/10 18:06:24;;;;;;;18.95;3.67;;;;;;;;;;5281515;28;20487;-78